sensor_id;sensor_type;location;lat;lon;timestamp;temperature;humidity
67157;SHT31;54086;50.126;8.710;2023-07-31T00:02:01;18.69;75.92
67157;SHT31;54086;50.126;8.710;2023-07-31T00:04:27;18.71;76.45
67157;SHT31;54086;50.126;8.710;2023-07-31T00:06:52;18.68;76.07
67157;SHT31;54086;50.126;8.710;2023-07-31T00:09:18;18.68;76.42
67157;SHT31;54086;50.126;8.710;2023-07-31T00:11:43;18.59;76.40
67157;SHT31;54086;50.126;8.710;2023-07-31T00:14:09;18.63;76.34
67157;SHT31;54086;50.126;8.710;2023-07-31T00:16:34;18.61;76.05
67157;SHT31;54086;50.126;8.710;2023-07-31T00:18:59;18.62;75.91
67157;SHT31;54086;50.126;8.710;2023-07-31T00:21:25;18.56;76.14
67157;SHT31;54086;50.126;8.710;2023-07-31T00:23:50;18.56;76.03
67157;SHT31;54086;50.126;8.710;2023-07-31T00:26:16;18.62;76.11
67157;SHT31;54086;50.126;8.710;2023-07-31T00:28:41;18.51;76.29
67157;SHT31;54086;50.126;8.710;2023-07-31T00:31:07;18.52;76.44
67157;SHT31;54086;50.126;8.710;2023-07-31T00:33:34;18.52;76.35
67157;SHT31;54086;50.126;8.710;2023-07-31T00:36:00;18.52;76.69
67157;SHT31;54086;50.126;8.710;2023-07-31T00:38:25;18.48;76.93
67157;SHT31;54086;50.126;8.710;2023-07-31T00:40:51;18.48;77.15
67157;SHT31;54086;50.126;8.710;2023-07-31T00:43:16;18.41;77.85
67157;SHT31;54086;50.126;8.710;2023-07-31T00:45:41;18.38;78.20
67157;SHT31;54086;50.126;8.710;2023-07-31T00:48:07;18.40;77.83
67157;SHT31;54086;50.126;8.710;2023-07-31T00:50:33;18.41;78.05
67157;SHT31;54086;50.126;8.710;2023-07-31T00:52:58;18.38;78.33
67157;SHT31;54086;50.126;8.710;2023-07-31T00:55:24;18.31;77.66
67157;SHT31;54086;50.126;8.710;2023-07-31T00:57:50;18.31;78.03
67157;SHT31;54086;50.126;8.710;2023-07-31T01:00:18;18.37;78.06
67157;SHT31;54086;50.126;8.710;2023-07-31T01:02:44;18.37;78.26
67157;SHT31;54086;50.126;8.710;2023-07-31T01:05:10;18.44;77.99
67157;SHT31;54086;50.126;8.710;2023-07-31T01:08:03;18.42;78.08
67157;SHT31;54086;50.126;8.710;2023-07-31T01:10:35;18.47;77.90
67157;SHT31;54086;50.126;8.710;2023-07-31T01:13:03;18.53;77.52
67157;SHT31;54086;50.126;8.710;2023-07-31T01:15:28;18.53;77.22
67157;SHT31;54086;50.126;8.710;2023-07-31T01:17:54;18.48;76.59
67157;SHT31;54086;50.126;8.710;2023-07-31T01:20:24;18.44;76.70
67157;SHT31;54086;50.126;8.710;2023-07-31T01:28:13;18.51;77.10
67157;SHT31;54086;50.126;8.710;2023-07-31T01:30:45;18.53;76.83
67157;SHT31;54086;50.126;8.710;2023-07-31T01:33:18;18.55;76.42
67157;SHT31;54086;50.126;8.710;2023-07-31T01:35:45;18.63;76.26
67157;SHT31;54086;50.126;8.710;2023-07-31T01:38:11;18.69;76.56
67157;SHT31;54086;50.126;8.710;2023-07-31T01:40:37;18.73;75.04
67157;SHT31;54086;50.126;8.710;2023-07-31T01:43:02;18.75;75.34
67157;SHT31;54086;50.126;8.710;2023-07-31T01:45:27;18.77;75.37
67157;SHT31;54086;50.126;8.710;2023-07-31T01:47:53;18.76;74.79
67157;SHT31;54086;50.126;8.710;2023-07-31T01:50:18;18.77;75.02
67157;SHT31;54086;50.126;8.710;2023-07-31T01:52:43;18.76;74.47
67157;SHT31;54086;50.126;8.710;2023-07-31T01:55:09;18.82;74.83
67157;SHT31;54086;50.126;8.710;2023-07-31T01:57:36;18.77;74.55
67157;SHT31;54086;50.126;8.710;2023-07-31T02:00:01;18.75;73.99
67157;SHT31;54086;50.126;8.710;2023-07-31T02:02:26;18.81;74.35
67157;SHT31;54086;50.126;8.710;2023-07-31T02:04:52;18.77;73.70
67157;SHT31;54086;50.126;8.710;2023-07-31T02:07:17;18.77;73.84
67157;SHT31;54086;50.126;8.710;2023-07-31T02:09:43;18.79;73.45
67157;SHT31;54086;50.126;8.710;2023-07-31T02:12:08;18.88;73.45
67157;SHT31;54086;50.126;8.710;2023-07-31T02:14:34;18.89;73.42
67157;SHT31;54086;50.126;8.710;2023-07-31T02:17:00;18.88;73.44
67157;SHT31;54086;50.126;8.710;2023-07-31T02:19:25;18.90;73.21
67157;SHT31;54086;50.126;8.710;2023-07-31T02:21:51;18.89;72.87
67157;SHT31;54086;50.126;8.710;2023-07-31T02:24:16;18.92;73.03
67157;SHT31;54086;50.126;8.710;2023-07-31T02:26:41;18.95;72.98
67157;SHT31;54086;50.126;8.710;2023-07-31T02:29:08;18.99;72.86
67157;SHT31;54086;50.126;8.710;2023-07-31T02:31:33;19.02;72.83
67157;SHT31;54086;50.126;8.710;2023-07-31T02:33:58;19.06;72.57
67157;SHT31;54086;50.126;8.710;2023-07-31T02:36:24;19.07;72.58
67157;SHT31;54086;50.126;8.710;2023-07-31T02:38:49;19.07;72.70
67157;SHT31;54086;50.126;8.710;2023-07-31T02:41:14;19.09;72.56
67157;SHT31;54086;50.126;8.710;2023-07-31T02:43:41;19.04;72.26
67157;SHT31;54086;50.126;8.710;2023-07-31T02:46:07;19.00;72.40
67157;SHT31;54086;50.126;8.710;2023-07-31T02:48:32;18.99;72.41
67157;SHT31;54086;50.126;8.710;2023-07-31T02:50:57;19.00;72.32
67157;SHT31;54086;50.126;8.710;2023-07-31T02:53:24;18.93;72.24
67157;SHT31;54086;50.126;8.710;2023-07-31T02:55:51;18.93;72.49
67157;SHT31;54086;50.126;8.710;2023-07-31T02:58:16;18.88;72.48
67157;SHT31;54086;50.126;8.710;2023-07-31T03:00:45;18.92;72.41
67157;SHT31;54086;50.126;8.710;2023-07-31T03:03:10;18.86;72.67
67157;SHT31;54086;50.126;8.710;2023-07-31T03:05:36;18.83;72.63
67157;SHT31;54086;50.126;8.710;2023-07-31T03:08:02;18.89;72.59
67157;SHT31;54086;50.126;8.710;2023-07-31T03:10:27;18.77;72.88
67157;SHT31;54086;50.126;8.710;2023-07-31T03:12:52;18.81;73.07
67157;SHT31;54086;50.126;8.710;2023-07-31T03:15:18;18.81;73.07
67157;SHT31;54086;50.126;8.710;2023-07-31T03:17:43;18.76;73.40
67157;SHT31;54086;50.126;8.710;2023-07-31T03:20:09;18.77;73.40
67157;SHT31;54086;50.126;8.710;2023-07-31T03:22:35;18.75;73.62
67157;SHT31;54086;50.126;8.710;2023-07-31T03:25:09;18.69;74.01
67157;SHT31;54086;50.126;8.710;2023-07-31T03:27:35;18.65;74.14
67157;SHT31;54086;50.126;8.710;2023-07-31T03:30:02;18.63;74.38
67157;SHT31;54086;50.126;8.710;2023-07-31T03:32:28;18.58;74.65
67157;SHT31;54086;50.126;8.710;2023-07-31T03:34:53;18.56;74.81
67157;SHT31;54086;50.126;8.710;2023-07-31T03:37:18;18.48;75.19
67157;SHT31;54086;50.126;8.710;2023-07-31T03:39:44;18.40;75.51
67157;SHT31;54086;50.126;8.710;2023-07-31T03:42:09;18.37;75.71
67157;SHT31;54086;50.126;8.710;2023-07-31T03:44:35;18.37;75.93
67157;SHT31;54086;50.126;8.710;2023-07-31T03:47:00;18.40;76.07
67157;SHT31;54086;50.126;8.710;2023-07-31T03:49:25;18.38;76.16
67157;SHT31;54086;50.126;8.710;2023-07-31T03:51:51;18.34;76.29
67157;SHT31;54086;50.126;8.710;2023-07-31T03:54:16;18.28;76.56
67157;SHT31;54086;50.126;8.710;2023-07-31T03:56:41;18.32;76.42
67157;SHT31;54086;50.126;8.710;2023-07-31T03:59:07;18.25;76.75
67157;SHT31;54086;50.126;8.710;2023-07-31T04:01:32;18.20;76.93
67157;SHT31;54086;50.126;8.710;2023-07-31T04:03:57;18.21;76.89
67157;SHT31;54086;50.126;8.710;2023-07-31T04:06:23;18.24;76.78
67157;SHT31;54086;50.126;8.710;2023-07-31T04:08:48;18.27;76.74
67157;SHT31;54086;50.126;8.710;2023-07-31T04:11:14;18.25;76.85
67157;SHT31;54086;50.126;8.710;2023-07-31T04:13:39;18.24;76.77
67157;SHT31;54086;50.126;8.710;2023-07-31T04:16:05;18.18;77.00
67157;SHT31;54086;50.126;8.710;2023-07-31T04:18:30;18.17;77.04
67157;SHT31;54086;50.126;8.710;2023-07-31T04:20:56;18.17;77.05
67157;SHT31;54086;50.126;8.710;2023-07-31T04:23:23;18.11;77.05
67157;SHT31;54086;50.126;8.710;2023-07-31T04:25:49;18.13;77.09
67157;SHT31;54086;50.126;8.710;2023-07-31T04:28:14;18.10;77.10
67157;SHT31;54086;50.126;8.710;2023-07-31T04:30:39;18.11;77.15
67157;SHT31;54086;50.126;8.710;2023-07-31T04:33:05;18.10;77.07
67157;SHT31;54086;50.126;8.710;2023-07-31T04:35:30;18.03;77.17
67157;SHT31;54086;50.126;8.710;2023-07-31T04:37:55;18.15;76.90
67157;SHT31;54086;50.126;8.710;2023-07-31T04:40:21;18.13;76.93
67157;SHT31;54086;50.126;8.710;2023-07-31T04:42:46;18.07;77.05
67157;SHT31;54086;50.126;8.710;2023-07-31T04:45:12;18.17;76.86
67157;SHT31;54086;50.126;8.710;2023-07-31T04:47:37;18.11;77.07
67157;SHT31;54086;50.126;8.710;2023-07-31T04:50:03;18.10;77.13
67157;SHT31;54086;50.126;8.710;2023-07-31T04:52:28;18.10;77.01
67157;SHT31;54086;50.126;8.710;2023-07-31T04:54:54;18.15;77.13
67157;SHT31;54086;50.126;8.710;2023-07-31T04:57:19;18.14;77.10
67157;SHT31;54086;50.126;8.710;2023-07-31T04:59:44;18.21;76.69
67157;SHT31;54086;50.126;8.710;2023-07-31T05:02:12;18.25;76.60
67157;SHT31;54086;50.126;8.710;2023-07-31T05:04:37;18.30;76.53
67157;SHT31;54086;50.126;8.710;2023-07-31T05:07:03;18.25;76.40
67157;SHT31;54086;50.126;8.710;2023-07-31T05:09:28;18.24;76.35
67157;SHT31;54086;50.126;8.710;2023-07-31T05:11:53;18.10;76.54
67157;SHT31;54086;50.126;8.710;2023-07-31T05:14:19;18.13;76.54
67157;SHT31;54086;50.126;8.710;2023-07-31T05:16:45;18.22;76.51
67157;SHT31;54086;50.126;8.710;2023-07-31T05:19:10;18.24;76.57
67157;SHT31;54086;50.126;8.710;2023-07-31T05:21:36;18.25;76.42
67157;SHT31;54086;50.126;8.710;2023-07-31T05:24:01;18.10;77.18
67157;SHT31;54086;50.126;8.710;2023-07-31T05:26:27;18.13;77.95
67157;SHT31;54086;50.126;8.710;2023-07-31T05:28:52;18.17;77.70
67157;SHT31;54086;50.126;8.710;2023-07-31T05:31:17;18.27;77.35
67157;SHT31;54086;50.126;8.710;2023-07-31T05:33:43;18.18;77.20
67157;SHT31;54086;50.126;8.710;2023-07-31T05:36:09;18.11;77.18
67157;SHT31;54086;50.126;8.710;2023-07-31T05:38:34;18.11;77.58
67157;SHT31;54086;50.126;8.710;2023-07-31T05:41:00;18.17;77.57
67157;SHT31;54086;50.126;8.710;2023-07-31T05:43:25;18.13;77.43
67157;SHT31;54086;50.126;8.710;2023-07-31T05:45:51;18.17;77.60
67157;SHT31;54086;50.126;8.710;2023-07-31T05:48:17;18.00;78.44
67157;SHT31;54086;50.126;8.710;2023-07-31T05:50:43;18.08;78.39
67157;SHT31;54086;50.126;8.710;2023-07-31T05:53:09;18.14;78.57
67157;SHT31;54086;50.126;8.710;2023-07-31T05:55:35;18.14;78.59
67157;SHT31;54086;50.126;8.710;2023-07-31T05:58:02;18.17;78.60
67157;SHT31;54086;50.126;8.710;2023-07-31T06:00:28;18.25;78.52
67157;SHT31;54086;50.126;8.710;2023-07-31T06:02:53;18.24;78.76
67157;SHT31;54086;50.126;8.710;2023-07-31T06:05:19;18.22;77.77
67157;SHT31;54086;50.126;8.710;2023-07-31T06:07:44;18.25;77.69
67157;SHT31;54086;50.126;8.710;2023-07-31T06:10:09;18.31;77.89
67157;SHT31;54086;50.126;8.710;2023-07-31T06:12:35;18.21;77.49
67157;SHT31;54086;50.126;8.710;2023-07-31T06:15:02;18.21;77.38
67157;SHT31;54086;50.126;8.710;2023-07-31T06:17:28;18.27;77.47
67157;SHT31;54086;50.126;8.710;2023-07-31T06:19:54;18.34;77.60
67157;SHT31;54086;50.126;8.710;2023-07-31T06:22:19;18.52;76.86
67157;SHT31;54086;50.126;8.710;2023-07-31T06:24:45;18.45;76.41
67157;SHT31;54086;50.126;8.710;2023-07-31T06:27:11;18.53;76.44
67157;SHT31;54086;50.126;8.710;2023-07-31T06:29:36;18.63;76.23
67157;SHT31;54086;50.126;8.710;2023-07-31T06:32:02;18.68;75.94
67157;SHT31;54086;50.126;8.710;2023-07-31T06:34:28;18.68;75.78
67157;SHT31;54086;50.126;8.710;2023-07-31T06:36:53;18.68;75.63
67157;SHT31;54086;50.126;8.710;2023-07-31T06:39:18;18.61;75.93
67157;SHT31;54086;50.126;8.710;2023-07-31T06:41:44;18.63;75.79
67157;SHT31;54086;50.126;8.710;2023-07-31T06:44:10;18.73;75.82
67157;SHT31;54086;50.126;8.710;2023-07-31T06:46:36;18.82;75.44
67157;SHT31;54086;50.126;8.710;2023-07-31T06:49:01;18.89;75.15
67157;SHT31;54086;50.126;8.710;2023-07-31T06:51:27;18.95;75.14
67157;SHT31;54086;50.126;8.710;2023-07-31T06:53:52;19.00;75.18
67157;SHT31;54086;50.126;8.710;2023-07-31T06:56:17;19.04;74.80
67157;SHT31;54086;50.126;8.710;2023-07-31T06:58:43;19.20;74.62
67157;SHT31;54086;50.126;8.710;2023-07-31T07:01:08;19.17;74.78
67157;SHT31;54086;50.126;8.710;2023-07-31T07:03:34;19.20;74.67
67157;SHT31;54086;50.126;8.710;2023-07-31T07:06:00;19.14;74.55
67157;SHT31;54086;50.126;8.710;2023-07-31T07:08:25;19.26;74.53
67157;SHT31;54086;50.126;8.710;2023-07-31T07:10:51;19.28;74.22
67157;SHT31;54086;50.126;8.710;2023-07-31T07:13:16;19.27;74.42
67157;SHT31;54086;50.126;8.710;2023-07-31T07:15:47;19.41;73.87
67157;SHT31;54086;50.126;8.710;2023-07-31T07:18:13;19.28;73.96
67157;SHT31;54086;50.126;8.710;2023-07-31T07:20:45;19.27;74.24
67157;SHT31;54086;50.126;8.710;2023-07-31T07:23:11;19.30;74.01
67157;SHT31;54086;50.126;8.710;2023-07-31T07:25:37;19.31;74.11
67157;SHT31;54086;50.126;8.710;2023-07-31T07:28:03;19.41;73.75
67157;SHT31;54086;50.126;8.710;2023-07-31T07:30:28;19.44;73.89
67157;SHT31;54086;50.126;8.710;2023-07-31T07:32:54;19.64;73.38
67157;SHT31;54086;50.126;8.710;2023-07-31T07:35:19;19.86;72.68
67157;SHT31;54086;50.126;8.710;2023-07-31T07:37:48;19.68;73.30
67157;SHT31;54086;50.126;8.710;2023-07-31T07:40:14;19.77;73.13
67157;SHT31;54086;50.126;8.710;2023-07-31T07:42:39;19.77;73.24
67157;SHT31;54086;50.126;8.710;2023-07-31T07:45:05;19.67;73.50
67157;SHT31;54086;50.126;8.710;2023-07-31T07:47:30;19.71;73.51
67157;SHT31;54086;50.126;8.710;2023-07-31T07:49:56;19.72;73.75
67157;SHT31;54086;50.126;8.710;2023-07-31T07:52:21;19.81;73.84
67157;SHT31;54086;50.126;8.710;2023-07-31T07:54:47;19.70;74.16
67157;SHT31;54086;50.126;8.710;2023-07-31T07:57:12;19.93;73.74
67157;SHT31;54086;50.126;8.710;2023-07-31T07:59:40;20.15;73.35
67157;SHT31;54086;50.126;8.710;2023-07-31T08:02:05;20.16;73.35
67157;SHT31;54086;50.126;8.710;2023-07-31T08:04:31;20.30;72.90
67157;SHT31;54086;50.126;8.710;2023-07-31T08:06:56;20.39;72.53
67157;SHT31;54086;50.126;8.710;2023-07-31T08:09:22;20.23;72.58
67157;SHT31;54086;50.126;8.710;2023-07-31T08:11:47;20.49;72.21
67157;SHT31;54086;50.126;8.710;2023-07-31T08:14:13;20.69;72.00
67157;SHT31;54086;50.126;8.710;2023-07-31T08:16:38;20.49;72.26
67157;SHT31;54086;50.126;8.710;2023-07-31T08:19:04;20.39;72.70
67157;SHT31;54086;50.126;8.710;2023-07-31T08:21:29;20.41;72.65
67157;SHT31;54086;50.126;8.710;2023-07-31T08:23:55;20.32;73.00
67157;SHT31;54086;50.126;8.710;2023-07-31T08:26:20;20.40;72.62
67157;SHT31;54086;50.126;8.710;2023-07-31T08:28:46;20.29;73.10
67157;SHT31;54086;50.126;8.710;2023-07-31T08:31:12;20.34;73.04
67157;SHT31;54086;50.126;8.710;2023-07-31T08:33:38;20.51;73.20
67157;SHT31;54086;50.126;8.710;2023-07-31T08:36:05;20.87;72.63
67157;SHT31;54086;50.126;8.710;2023-07-31T08:38:32;21.02;72.28
67157;SHT31;54086;50.126;8.710;2023-07-31T08:40:57;21.00;71.89
67157;SHT31;54086;50.126;8.710;2023-07-31T08:43:25;20.78;71.88
67157;SHT31;54086;50.126;8.710;2023-07-31T08:45:52;20.70;72.10
67157;SHT31;54086;50.126;8.710;2023-07-31T08:48:19;20.50;72.31
67157;SHT31;54086;50.126;8.710;2023-07-31T08:50:45;20.85;71.48
67157;SHT31;54086;50.126;8.710;2023-07-31T08:53:10;21.59;70.14
67157;SHT31;54086;50.126;8.710;2023-07-31T08:55:36;21.69;69.61
67157;SHT31;54086;50.126;8.710;2023-07-31T08:58:03;21.79;69.27
67157;SHT31;54086;50.126;8.710;2023-07-31T09:00:31;21.46;70.10
67157;SHT31;54086;50.126;8.710;2023-07-31T09:03:02;21.31;70.75
67157;SHT31;54086;50.126;8.710;2023-07-31T09:05:30;21.24;70.82
67157;SHT31;54086;50.126;8.710;2023-07-31T09:07:57;21.38;70.63
67157;SHT31;54086;50.126;8.710;2023-07-31T09:10:23;21.31;70.88
67157;SHT31;54086;50.126;8.710;2023-07-31T09:12:51;21.38;70.41
67157;SHT31;54086;50.126;8.710;2023-07-31T09:15:16;21.56;70.09
67157;SHT31;54086;50.126;8.710;2023-07-31T09:17:42;21.65;69.76
67157;SHT31;54086;50.126;8.710;2023-07-31T09:20:15;21.73;69.38
67157;SHT31;54086;50.126;8.710;2023-07-31T09:22:42;22.06;68.64
67157;SHT31;54086;50.126;8.710;2023-07-31T09:25:24;22.17;68.72
67157;SHT31;54086;50.126;8.710;2023-07-31T09:27:53;22.01;68.72
67157;SHT31;54086;50.126;8.710;2023-07-31T09:30:18;22.13;68.66
67157;SHT31;54086;50.126;8.710;2023-07-31T09:32:45;21.72;69.21
67157;SHT31;54086;50.126;8.710;2023-07-31T09:35:30;21.96;70.53
67157;SHT31;54086;50.126;8.710;2023-07-31T09:38:07;22.00;69.27
67157;SHT31;54086;50.126;8.710;2023-07-31T09:40:35;21.72;68.85
67157;SHT31;54086;50.126;8.710;2023-07-31T09:43:08;21.60;68.62
67157;SHT31;54086;50.126;8.710;2023-07-31T09:45:39;21.65;68.63
67157;SHT31;54086;50.126;8.710;2023-07-31T09:48:10;21.79;68.73
67157;SHT31;54086;50.126;8.710;2023-07-31T09:50:41;21.77;70.66
67157;SHT31;54086;50.126;8.710;2023-07-31T09:53:08;21.63;73.25
67157;SHT31;54086;50.126;8.710;2023-07-31T09:55:35;21.25;74.72
67157;SHT31;54086;50.126;8.710;2023-07-31T09:58:07;21.17;75.90
67157;SHT31;54086;50.126;8.710;2023-07-31T10:00:34;21.12;73.52
67157;SHT31;54086;50.126;8.710;2023-07-31T10:03:02;21.37;73.35
67157;SHT31;54086;50.126;8.710;2023-07-31T10:05:40;21.46;72.44
67157;SHT31;54086;50.126;8.710;2023-07-31T10:08:09;21.49;70.94
67157;SHT31;54086;50.126;8.710;2023-07-31T10:10:36;21.45;70.32
67157;SHT31;54086;50.126;8.710;2023-07-31T10:13:03;21.67;69.57
67157;SHT31;54086;50.126;8.710;2023-07-31T10:15:31;21.83;68.76
67157;SHT31;54086;50.126;8.710;2023-07-31T10:17:58;22.03;69.14
67157;SHT31;54086;50.126;8.710;2023-07-31T10:20:24;22.25;68.92
67157;SHT31;54086;50.126;8.710;2023-07-31T10:22:54;22.08;68.00
67157;SHT31;54086;50.126;8.710;2023-07-31T10:25:19;21.90;68.10
67157;SHT31;54086;50.126;8.710;2023-07-31T10:27:47;21.86;67.54
67157;SHT31;54086;50.126;8.710;2023-07-31T10:30:15;22.01;67.77
67157;SHT31;54086;50.126;8.710;2023-07-31T10:32:43;22.20;67.87
67157;SHT31;54086;50.126;8.710;2023-07-31T10:35:09;22.38;67.64
67157;SHT31;54086;50.126;8.710;2023-07-31T10:37:42;22.28;67.32
67157;SHT31;54086;50.126;8.710;2023-07-31T10:40:25;22.24;66.46
67157;SHT31;54086;50.126;8.710;2023-07-31T10:42:56;22.47;65.89
67157;SHT31;54086;50.126;8.710;2023-07-31T10:45:37;22.66;65.80
67157;SHT31;54086;50.126;8.710;2023-07-31T10:48:06;22.62;65.02
67157;SHT31;54086;50.126;8.710;2023-07-31T10:50:40;22.73;64.95
67157;SHT31;54086;50.126;8.710;2023-07-31T10:53:31;22.85;64.62
67157;SHT31;54086;50.126;8.710;2023-07-31T10:58:25;22.61;64.99
67157;SHT31;54086;50.126;8.710;2023-07-31T11:00:55;22.59;65.34
67157;SHT31;54086;50.126;8.710;2023-07-31T11:03:40;22.94;64.94
67157;SHT31;54086;50.126;8.710;2023-07-31T11:06:06;22.86;64.64
67157;SHT31;54086;50.126;8.710;2023-07-31T11:08:33;22.94;64.32
67157;SHT31;54086;50.126;8.710;2023-07-31T11:13:54;22.75;65.15
67157;SHT31;54086;50.126;8.710;2023-07-31T11:16:21;22.54;65.52
67157;SHT31;54086;50.126;8.710;2023-07-31T11:18:48;22.88;64.95
67157;SHT31;54086;50.126;8.710;2023-07-31T11:21:21;22.68;65.38
67157;SHT31;54086;50.126;8.710;2023-07-31T11:23:56;22.52;65.85
67157;SHT31;54086;50.126;8.710;2023-07-31T11:26:23;22.62;65.70
67157;SHT31;54086;50.126;8.710;2023-07-31T11:28:50;22.91;65.44
67157;SHT31;54086;50.126;8.710;2023-07-31T11:31:16;22.72;65.72
67157;SHT31;54086;50.126;8.710;2023-07-31T11:33:42;22.61;65.42
67157;SHT31;54086;50.126;8.710;2023-07-31T11:36:17;22.86;65.06
67157;SHT31;54086;50.126;8.710;2023-07-31T11:38:42;22.89;64.85
67157;SHT31;54086;50.126;8.710;2023-07-31T11:41:08;22.69;65.45
67157;SHT31;54086;50.126;8.710;2023-07-31T11:43:34;22.37;65.80
67157;SHT31;54086;50.126;8.710;2023-07-31T11:46:01;22.47;65.98
67157;SHT31;54086;50.126;8.710;2023-07-31T11:48:36;22.43;66.12
67157;SHT31;54086;50.126;8.710;2023-07-31T11:51:10;22.58;66.16
67157;SHT31;54086;50.126;8.710;2023-07-31T11:53:50;22.64;65.76
67157;SHT31;54086;50.126;8.710;2023-07-31T11:56:18;22.86;65.52
67157;SHT31;54086;50.126;8.710;2023-07-31T11:58:51;22.81;65.28
67157;SHT31;54086;50.126;8.710;2023-07-31T12:01:19;23.00;64.10
67157;SHT31;54086;50.126;8.710;2023-07-31T12:03:46;23.07;64.46
67157;SHT31;54086;50.126;8.710;2023-07-31T12:06:11;23.10;64.50
67157;SHT31;54086;50.126;8.710;2023-07-31T12:08:37;23.24;64.07
67157;SHT31;54086;50.126;8.710;2023-07-31T12:11:04;23.31;63.90
67157;SHT31;54086;50.126;8.710;2023-07-31T12:13:31;23.26;63.37
67157;SHT31;54086;50.126;8.710;2023-07-31T12:15:59;23.42;63.15
67157;SHT31;54086;50.126;8.710;2023-07-31T12:18:26;23.34;63.52
67157;SHT31;54086;50.126;8.710;2023-07-31T12:20:56;23.26;64.07
67157;SHT31;54086;50.126;8.710;2023-07-31T12:23:25;23.23;64.48
67157;SHT31;54086;50.126;8.710;2023-07-31T12:26:09;23.12;64.81
67157;SHT31;54086;50.126;8.710;2023-07-31T12:28:41;22.82;65.35
67157;SHT31;54086;50.126;8.710;2023-07-31T12:31:09;22.82;65.24
67157;SHT31;54086;50.126;8.710;2023-07-31T12:33:37;22.65;65.61
67157;SHT31;54086;50.126;8.710;2023-07-31T12:36:07;22.75;65.27
67157;SHT31;54086;50.126;8.710;2023-07-31T12:38:33;22.61;65.63
67157;SHT31;54086;50.126;8.710;2023-07-31T12:40:58;22.66;65.58
67157;SHT31;54086;50.126;8.710;2023-07-31T12:43:24;22.64;65.64
67157;SHT31;54086;50.126;8.710;2023-07-31T12:45:49;22.65;65.62
67157;SHT31;54086;50.126;8.710;2023-07-31T12:48:15;22.51;65.74
67157;SHT31;54086;50.126;8.710;2023-07-31T12:50:40;22.51;65.56
67157;SHT31;54086;50.126;8.710;2023-07-31T12:53:06;22.57;65.71
67157;SHT31;54086;50.126;8.710;2023-07-31T12:55:32;22.69;65.48
67157;SHT31;54086;50.126;8.710;2023-07-31T12:58:00;22.73;65.55
67157;SHT31;54086;50.126;8.710;2023-07-31T13:00:25;23.06;64.85
67157;SHT31;54086;50.126;8.710;2023-07-31T13:02:51;23.87;62.93
67157;SHT31;54086;50.126;8.710;2023-07-31T13:05:17;24.32;62.75
67157;SHT31;54086;50.126;8.710;2023-07-31T13:07:44;25.06;60.61
67157;SHT31;54086;50.126;8.710;2023-07-31T13:10:10;25.62;59.96
67157;SHT31;54086;50.126;8.710;2023-07-31T13:12:35;25.32;59.91
67157;SHT31;54086;50.126;8.710;2023-07-31T13:15:01;24.93;60.92
67157;SHT31;54086;50.126;8.710;2023-07-31T13:17:26;24.32;62.25
67157;SHT31;54086;50.126;8.710;2023-07-31T13:19:52;24.08;62.83
67157;SHT31;54086;50.126;8.710;2023-07-31T13:22:17;24.05;63.14
67157;SHT31;54086;50.126;8.710;2023-07-31T13:24:43;24.12;63.18
67157;SHT31;54086;50.126;8.710;2023-07-31T13:27:08;23.79;63.19
67157;SHT31;54086;50.126;8.710;2023-07-31T13:29:34;24.02;62.75
67157;SHT31;54086;50.126;8.710;2023-07-31T13:31:59;24.16;62.58
67157;SHT31;54086;50.126;8.710;2023-07-31T13:34:24;23.95;62.47
67157;SHT31;54086;50.126;8.710;2023-07-31T13:36:50;23.89;62.61
67157;SHT31;54086;50.126;8.710;2023-07-31T13:39:15;23.91;62.83
67157;SHT31;54086;50.126;8.710;2023-07-31T13:41:41;24.18;62.34
67157;SHT31;54086;50.126;8.710;2023-07-31T13:44:06;24.16;61.97
67157;SHT31;54086;50.126;8.710;2023-07-31T13:46:32;24.30;62.16
67157;SHT31;54086;50.126;8.710;2023-07-31T13:48:58;24.08;62.44
67157;SHT31;54086;50.126;8.710;2023-07-31T13:51:25;24.21;62.71
67157;SHT31;54086;50.126;8.710;2023-07-31T13:53:50;24.06;62.55
67157;SHT31;54086;50.126;8.710;2023-07-31T13:56:16;24.01;62.57
67157;SHT31;54086;50.126;8.710;2023-07-31T13:58:41;23.93;62.96
67157;SHT31;54086;50.126;8.710;2023-07-31T14:01:07;23.88;63.25
67157;SHT31;54086;50.126;8.710;2023-07-31T14:03:32;23.77;63.34
67157;SHT31;54086;50.126;8.710;2023-07-31T14:05:57;23.79;63.70
67157;SHT31;54086;50.126;8.710;2023-07-31T14:08:23;23.61;63.97
67157;SHT31;54086;50.126;8.710;2023-07-31T14:10:48;23.43;64.43
67157;SHT31;54086;50.126;8.710;2023-07-31T14:13:14;23.33;64.60
67157;SHT31;54086;50.126;8.710;2023-07-31T14:15:41;23.36;64.89
67157;SHT31;54086;50.126;8.710;2023-07-31T14:18:07;23.43;64.53
67157;SHT31;54086;50.126;8.710;2023-07-31T14:20:32;23.33;64.55
67157;SHT31;54086;50.126;8.710;2023-07-31T14:22:58;23.22;64.68
67157;SHT31;54086;50.126;8.710;2023-07-31T14:25:24;23.06;64.88
67157;SHT31;54086;50.126;8.710;2023-07-31T14:27:49;23.02;65.18
67157;SHT31;54086;50.126;8.710;2023-07-31T14:30:15;23.10;65.14
67157;SHT31;54086;50.126;8.710;2023-07-31T14:32:41;23.07;65.29
67157;SHT31;54086;50.126;8.710;2023-07-31T14:35:07;23.03;65.57
67157;SHT31;54086;50.126;8.710;2023-07-31T14:37:39;23.06;65.38
67157;SHT31;54086;50.126;8.710;2023-07-31T14:40:06;23.05;65.53
67157;SHT31;54086;50.126;8.710;2023-07-31T14:42:32;23.16;65.42
67157;SHT31;54086;50.126;8.710;2023-07-31T14:44:58;22.94;65.98
67157;SHT31;54086;50.126;8.710;2023-07-31T14:47:23;22.91;65.97
67157;SHT31;54086;50.126;8.710;2023-07-31T14:49:48;22.96;66.03
67157;SHT31;54086;50.126;8.710;2023-07-31T14:52:14;23.00;66.01
67157;SHT31;54086;50.126;8.710;2023-07-31T14:54:40;23.27;65.59
67157;SHT31;54086;50.126;8.710;2023-07-31T14:57:05;23.51;65.15
67157;SHT31;54086;50.126;8.710;2023-07-31T14:59:31;23.06;65.83
67157;SHT31;54086;50.126;8.710;2023-07-31T15:01:56;22.92;66.55
67157;SHT31;54086;50.126;8.710;2023-07-31T15:04:22;22.89;66.45
67157;SHT31;54086;50.126;8.710;2023-07-31T15:06:47;22.85;66.54
67157;SHT31;54086;50.126;8.710;2023-07-31T15:09:13;23.02;66.17
67157;SHT31;54086;50.126;8.710;2023-07-31T15:11:39;22.85;66.48
67157;SHT31;54086;50.126;8.710;2023-07-31T15:14:05;22.89;66.73
67157;SHT31;54086;50.126;8.710;2023-07-31T15:16:30;22.72;66.82
67157;SHT31;54086;50.126;8.710;2023-07-31T15:18:57;22.66;66.91
67157;SHT31;54086;50.126;8.710;2023-07-31T15:21:22;22.57;67.25
67157;SHT31;54086;50.126;8.710;2023-07-31T15:23:47;22.57;67.32
67157;SHT31;54086;50.126;8.710;2023-07-31T15:26:13;22.58;67.38
67157;SHT31;54086;50.126;8.710;2023-07-31T15:28:38;22.44;67.62
67157;SHT31;54086;50.126;8.710;2023-07-31T15:31:04;22.43;67.03
67157;SHT31;54086;50.126;8.710;2023-07-31T15:33:29;22.57;66.71
67157;SHT31;54086;50.126;8.710;2023-07-31T15:35:55;22.48;66.53
67157;SHT31;54086;50.126;8.710;2023-07-31T15:38:24;22.44;66.87